sensor_id;sensor_type;location;lat;lon;timestamp;P1;durP1;ratioP1;P2;durP2;ratioP2
30062;SDS011;16889;67.864;24.990;2022-07-29T00:01:42;6.07;;;2.45;;
30062;SDS011;16889;67.864;24.990;2022-07-29T00:06:28;4.13;;;2.15;;
30062;SDS011;16889;67.864;24.990;2022-07-29T00:11:14;8.75;;;2.63;;
30062;SDS011;16889;67.864;24.990;2022-07-29T00:16:00;8.20;;;2.60;;
30062;SDS011;16889;67.864;24.990;2022-07-29T00:20:46;5.65;;;2.22;;
30062;SDS011;16889;67.864;24.990;2022-07-29T00:25:32;3.95;;;2.63;;
30062;SDS011;16889;67.864;24.990;2022-07-29T00:30:18;8.00;;;2.70;;
30062;SDS011;16889;67.864;24.990;2022-07-29T00:35:04;5.45;;;2.38;;
30062;SDS011;16889;67.864;24.990;2022-07-29T00:40:10;3.60;;;2.50;;
30062;SDS011;16889;67.864;24.990;2022-07-29T00:44:56;4.78;;;2.55;;
30062;SDS011;16889;67.864;24.990;2022-07-29T00:49:42;4.38;;;2.65;;
30062;SDS011;16889;67.864;24.990;2022-07-29T00:54:28;6.07;;;2.35;;
30062;SDS011;16889;67.864;24.990;2022-07-29T00:59:15;5.55;;;2.53;;
30062;SDS011;16889;67.864;24.990;2022-07-29T01:04:01;8.77;;;2.97;;
30062;SDS011;16889;67.864;24.990;2022-07-29T01:08:47;6.82;;;2.70;;
30062;SDS011;16889;67.864;24.990;2022-07-29T01:13:34;6.55;;;2.55;;
30062;SDS011;16889;67.864;24.990;2022-07-29T01:18:28;6.05;;;2.92;;
30062;SDS011;16889;67.864;24.990;2022-07-29T01:23:38;6.85;;;2.47;;
30062;SDS011;16889;67.864;24.990;2022-07-29T01:33:36;7.50;;;2.53;;
30062;SDS011;16889;67.864;24.990;2022-07-29T01:38:35;5.60;;;2.83;;
30062;SDS011;16889;67.864;24.990;2022-07-29T01:44:11;5.28;;;2.55;;
30062;SDS011;16889;67.864;24.990;2022-07-29T01:48:53;5.10;;;2.33;;
30062;SDS011;16889;67.864;24.990;2022-07-29T01:53:46;6.30;;;2.72;;
30062;SDS011;16889;67.864;24.990;2022-07-29T01:58:33;4.55;;;2.55;;
30062;SDS011;16889;67.864;24.990;2022-07-29T02:03:24;6.07;;;2.80;;
30062;SDS011;16889;67.864;24.990;2022-07-29T02:08:12;6.15;;;2.40;;
30062;SDS011;16889;67.864;24.990;2022-07-29T02:13:00;3.45;;;2.05;;
30062;SDS011;16889;67.864;24.990;2022-07-29T02:17:55;7.90;;;2.50;;
30062;SDS011;16889;67.864;24.990;2022-07-29T02:22:47;4.80;;;2.75;;
30062;SDS011;16889;67.864;24.990;2022-07-29T02:27:35;4.05;;;2.63;;
30062;SDS011;16889;67.864;24.990;2022-07-29T02:32:24;4.30;;;2.38;;
30062;SDS011;16889;67.864;24.990;2022-07-29T02:37:12;5.50;;;2.30;;
30062;SDS011;16889;67.864;24.990;2022-07-29T02:42:02;4.22;;;2.58;;
30062;SDS011;16889;67.864;24.990;2022-07-29T02:51:55;3.50;;;2.28;;
30062;SDS011;16889;67.864;24.990;2022-07-29T02:56:44;6.22;;;2.80;;
30062;SDS011;16889;67.864;24.990;2022-07-29T03:01:32;5.95;;;1.70;;
30062;SDS011;16889;67.864;24.990;2022-07-29T03:06:21;5.45;;;2.10;;
30062;SDS011;16889;67.864;24.990;2022-07-29T03:11:09;5.97;;;1.88;;
30062;SDS011;16889;67.864;24.990;2022-07-29T03:15:56;3.53;;;1.63;;
30062;SDS011;16889;67.864;24.990;2022-07-29T03:20:44;3.40;;;1.58;;
30062;SDS011;16889;67.864;24.990;2022-07-29T03:25:30;3.20;;;1.60;;
30062;SDS011;16889;67.864;24.990;2022-07-29T03:30:17;2.50;;;1.52;;
30062;SDS011;16889;67.864;24.990;2022-07-29T03:35:03;3.53;;;1.80;;
30062;SDS011;16889;67.864;24.990;2022-07-29T03:39:50;2.80;;;1.57;;
30062;SDS011;16889;67.864;24.990;2022-07-29T03:44:38;3.20;;;1.58;;
30062;SDS011;16889;67.864;24.990;2022-07-29T03:49:27;3.97;;;1.25;;
30062;SDS011;16889;67.864;24.990;2022-07-29T03:54:14;9.75;;;1.80;;
30062;SDS011;16889;67.864;24.990;2022-07-29T03:59:01;2.67;;;1.30;;
30062;SDS011;16889;67.864;24.990;2022-07-29T04:03:48;2.63;;;1.40;;
30062;SDS011;16889;67.864;24.990;2022-07-29T04:08:34;1.48;;;0.90;;
30062;SDS011;16889;67.864;24.990;2022-07-29T04:13:20;1.50;;;1.20;;
30062;SDS011;16889;67.864;24.990;2022-07-29T04:18:06;2.65;;;0.80;;
30062;SDS011;16889;67.864;24.990;2022-07-29T04:22:52;3.70;;;1.08;;
30062;SDS011;16889;67.864;24.990;2022-07-29T04:27:39;2.22;;;1.00;;
30062;SDS011;16889;67.864;24.990;2022-07-29T04:32:45;2.35;;;0.80;;
30062;SDS011;16889;67.864;24.990;2022-07-29T04:37:31;4.07;;;1.15;;
30062;SDS011;16889;67.864;24.990;2022-07-29T04:42:17;1.92;;;0.82;;
30062;SDS011;16889;67.864;24.990;2022-07-29T04:47:03;2.25;;;0.90;;
30062;SDS011;16889;67.864;24.990;2022-07-29T04:51:49;2.72;;;0.80;;
30062;SDS011;16889;67.864;24.990;2022-07-29T04:56:35;2.30;;;0.90;;
30062;SDS011;16889;67.864;24.990;2022-07-29T05:01:21;3.80;;;1.00;;
30062;SDS011;16889;67.864;24.990;2022-07-29T05:06:07;1.88;;;0.80;;
30062;SDS011;16889;67.864;24.990;2022-07-29T05:10:53;2.40;;;1.10;;
30062;SDS011;16889;67.864;24.990;2022-07-29T05:15:39;2.72;;;0.80;;
30062;SDS011;16889;67.864;24.990;2022-07-29T05:20:25;1.10;;;0.80;;
30062;SDS011;16889;67.864;24.990;2022-07-29T05:29:59;1.13;;;0.88;;
30062;SDS011;16889;67.864;24.990;2022-07-29T05:34:45;1.63;;;0.90;;
30062;SDS011;16889;67.864;24.990;2022-07-29T05:39:31;1.55;;;0.88;;
30062;SDS011;16889;67.864;24.990;2022-07-29T05:44:17;1.42;;;0.77;;
30062;SDS011;16889;67.864;24.990;2022-07-29T05:49:03;1.35;;;0.70;;
30062;SDS011;16889;67.864;24.990;2022-07-29T05:53:49;3.75;;;0.80;;
30062;SDS011;16889;67.864;24.990;2022-07-29T05:58:35;2.58;;;1.23;;
30062;SDS011;16889;67.864;24.990;2022-07-29T06:03:21;1.45;;;0.80;;
30062;SDS011;16889;67.864;24.990;2022-07-29T06:08:07;2.33;;;1.02;;
30062;SDS011;16889;67.864;24.990;2022-07-29T06:12:53;2.08;;;0.82;;
30062;SDS011;16889;67.864;24.990;2022-07-29T06:17:39;2.22;;;0.63;;
30062;SDS011;16889;67.864;24.990;2022-07-29T06:22:25;0.68;;;0.57;;
30062;SDS011;16889;67.864;24.990;2022-07-29T06:27:11;4.78;;;1.10;;
30062;SDS011;16889;67.864;24.990;2022-07-29T06:31:57;1.08;;;0.77;;
30062;SDS011;16889;67.864;24.990;2022-07-29T06:36:43;1.73;;;0.80;;
30062;SDS011;16889;67.864;24.990;2022-07-29T06:41:29;6.55;;;1.00;;
30062;SDS011;16889;67.864;24.990;2022-07-29T06:46:15;3.15;;;0.85;;
30062;SDS011;16889;67.864;24.990;2022-07-29T06:51:03;3.20;;;0.90;;
30062;SDS011;16889;67.864;24.990;2022-07-29T06:55:50;6.33;;;1.10;;
30062;SDS011;16889;67.864;24.990;2022-07-29T07:00:36;1.20;;;0.63;;
30062;SDS011;16889;67.864;24.990;2022-07-29T07:05:22;1.10;;;0.70;;
30062;SDS011;16889;67.864;24.990;2022-07-29T07:10:08;1.02;;;0.60;;
30062;SDS011;16889;67.864;24.990;2022-07-29T07:14:54;1.67;;;0.70;;
30062;SDS011;16889;67.864;24.990;2022-07-29T07:19:40;0.80;;;0.70;;
30062;SDS011;16889;67.864;24.990;2022-07-29T07:24:26;5.88;;;0.77;;
30062;SDS011;16889;67.864;24.990;2022-07-29T07:29:12;1.38;;;0.68;;
30062;SDS011;16889;67.864;24.990;2022-07-29T07:33:58;5.65;;;0.70;;
30062;SDS011;16889;67.864;24.990;2022-07-29T07:38:44;2.83;;;0.82;;
30062;SDS011;16889;67.864;24.990;2022-07-29T07:43:30;2.50;;;0.75;;
30062;SDS011;16889;67.864;24.990;2022-07-29T07:48:16;1.08;;;0.60;;
30062;SDS011;16889;67.864;24.990;2022-07-29T07:53:02;3.03;;;0.60;;
30062;SDS011;16889;67.864;24.990;2022-07-29T07:57:48;0.75;;;0.47;;
30062;SDS011;16889;67.864;24.990;2022-07-29T08:02:34;0.65;;;0.55;;
30062;SDS011;16889;67.864;24.990;2022-07-29T08:07:20;0.98;;;0.70;;
30062;SDS011;16889;67.864;24.990;2022-07-29T08:12:07;1.15;;;0.60;;
30062;SDS011;16889;67.864;24.990;2022-07-29T08:16:53;1.25;;;0.70;;
30062;SDS011;16889;67.864;24.990;2022-07-29T08:21:39;3.50;;;0.55;;
30062;SDS011;16889;67.864;24.990;2022-07-29T08:26:25;4.60;;;0.57;;
30062;SDS011;16889;67.864;24.990;2022-07-29T08:31:11;1.10;;;0.60;;
30062;SDS011;16889;67.864;24.990;2022-07-29T08:35:58;2.28;;;0.60;;
30062;SDS011;16889;67.864;24.990;2022-07-29T08:40:44;2.08;;;0.60;;
30062;SDS011;16889;67.864;24.990;2022-07-29T08:45:34;4.40;;;0.70;;
30062;SDS011;16889;67.864;24.990;2022-07-29T08:50:29;1.15;;;0.60;;
30062;SDS011;16889;67.864;24.990;2022-07-29T08:55:16;1.70;;;0.68;;
30062;SDS011;16889;67.864;24.990;2022-07-29T09:00:03;2.33;;;0.57;;
30062;SDS011;16889;67.864;24.990;2022-07-29T09:04:51;0.43;;;0.38;;
30062;SDS011;16889;67.864;24.990;2022-07-29T09:21:02;1.00;;;0.50;;
30062;SDS011;16889;67.864;24.990;2022-07-29T09:26:07;1.35;;;0.57;;
30062;SDS011;16889;67.864;24.990;2022-07-29T09:30:54;1.20;;;0.50;;
30062;SDS011;16889;67.864;24.990;2022-07-29T09:35:43;1.10;;;0.47;;
30062;SDS011;16889;67.864;24.990;2022-07-29T09:40:29;3.58;;;0.82;;
30062;SDS011;16889;67.864;24.990;2022-07-29T09:45:31;1.13;;;0.60;;
30062;SDS011;16889;67.864;24.990;2022-07-29T09:50:18;1.08;;;0.50;;
30062;SDS011;16889;67.864;24.990;2022-07-29T09:55:10;1.08;;;0.40;;
30062;SDS011;16889;67.864;24.990;2022-07-29T10:00:07;1.33;;;0.47;;
30062;SDS011;16889;67.864;24.990;2022-07-29T10:05:02;0.45;;;0.40;;
30062;SDS011;16889;67.864;24.990;2022-07-29T10:09:54;2.15;;;0.60;;
30062;SDS011;16889;67.864;24.990;2022-07-29T10:14:42;0.77;;;0.43;;
30062;SDS011;16889;67.864;24.990;2022-07-29T10:19:28;1.00;;;0.52;;
30062;SDS011;16889;67.864;24.990;2022-07-29T10:24:16;0.68;;;0.50;;
30062;SDS011;16889;67.864;24.990;2022-07-29T10:29:02;2.58;;;0.45;;
30062;SDS011;16889;67.864;24.990;2022-07-29T10:33:56;2.05;;;0.70;;
30062;SDS011;16889;67.864;24.990;2022-07-29T10:39:16;0.93;;;0.50;;
30062;SDS011;16889;67.864;24.990;2022-07-29T10:44:23;1.52;;;0.40;;
30062;SDS011;16889;67.864;24.990;2022-07-29T10:49:21;0.65;;;0.43;;
30062;SDS011;16889;67.864;24.990;2022-07-29T10:54:09;2.83;;;0.65;;
30062;SDS011;16889;67.864;24.990;2022-07-29T11:04:03;1.30;;;0.50;;
30062;SDS011;16889;67.864;24.990;2022-07-29T11:09:14;0.68;;;0.45;;
30062;SDS011;16889;67.864;24.990;2022-07-29T11:14:06;6.43;;;0.60;;
30062;SDS011;16889;67.864;24.990;2022-07-29T11:24:16;1.80;;;0.70;;
30062;SDS011;16889;67.864;24.990;2022-07-29T11:29:08;0.93;;;0.60;;
30062;SDS011;16889;67.864;24.990;2022-07-29T11:34:32;2.05;;;0.60;;
30062;SDS011;16889;67.864;24.990;2022-07-29T11:39:27;2.45;;;0.60;;
30062;SDS011;16889;67.864;24.990;2022-07-29T11:44:13;0.85;;;0.50;;
30062;SDS011;16889;67.864;24.990;2022-07-29T11:49:00;1.20;;;0.50;;
30062;SDS011;16889;67.864;24.990;2022-07-29T11:53:49;2.60;;;0.63;;
30062;SDS011;16889;67.864;24.990;2022-07-29T11:58:36;2.63;;;0.68;;
30062;SDS011;16889;67.864;24.990;2022-07-29T12:03:26;1.08;;;0.60;;
30062;SDS011;16889;67.864;24.990;2022-07-29T12:08:14;1.73;;;0.50;;
30062;SDS011;16889;67.864;24.990;2022-07-29T12:13:07;2.47;;;0.50;;
30062;SDS011;16889;67.864;24.990;2022-07-29T12:17:53;0.88;;;0.60;;
30062;SDS011;16889;67.864;24.990;2022-07-29T12:22:40;1.75;;;0.70;;
30062;SDS011;16889;67.864;24.990;2022-07-29T12:27:29;0.90;;;0.60;;
30062;SDS011;16889;67.864;24.990;2022-07-29T12:32:18;6.85;;;0.90;;
30062;SDS011;16889;67.864;24.990;2022-07-29T12:37:03;1.08;;;0.60;;
30062;SDS011;16889;67.864;24.990;2022-07-29T12:41:49;2.92;;;0.63;;
30062;SDS011;16889;67.864;24.990;2022-07-29T12:46:36;1.45;;;0.60;;
30062;SDS011;16889;67.864;24.990;2022-07-29T12:51:29;3.20;;;0.65;;
30062;SDS011;16889;67.864;24.990;2022-07-29T12:56:16;3.25;;;0.68;;
30062;SDS011;16889;67.864;24.990;2022-07-29T13:01:03;2.90;;;0.80;;
30062;SDS011;16889;67.864;24.990;2022-07-29T13:05:51;7.63;;;0.80;;
30062;SDS011;16889;67.864;24.990;2022-07-29T13:10:37;1.48;;;0.60;;
30062;SDS011;16889;67.864;24.990;2022-07-29T13:15:23;4.18;;;0.80;;
30062;SDS011;16889;67.864;24.990;2022-07-29T13:20:10;0.55;;;0.50;;
30062;SDS011;16889;67.864;24.990;2022-07-29T13:25:00;1.10;;;0.70;;
30062;SDS011;16889;67.864;24.990;2022-07-29T13:29:47;0.90;;;0.50;;
30062;SDS011;16889;67.864;24.990;2022-07-29T13:34:36;1.08;;;0.57;;
30062;SDS011;16889;67.864;24.990;2022-07-29T13:39:22;0.80;;;0.60;;
30062;SDS011;16889;67.864;24.990;2022-07-29T13:44:08;5.60;;;0.65;;
30062;SDS011;16889;67.864;24.990;2022-07-29T13:48:54;1.05;;;0.50;;
30062;SDS011;16889;67.864;24.990;2022-07-29T13:53:40;2.53;;;0.43;;
30062;SDS011;16889;67.864;24.990;2022-07-29T13:58:25;1.35;;;0.40;;
30062;SDS011;16889;67.864;24.990;2022-07-29T14:03:12;2.28;;;0.70;;
30062;SDS011;16889;67.864;24.990;2022-07-29T14:07:57;1.60;;;0.50;;
30062;SDS011;16889;67.864;24.990;2022-07-29T14:12:43;1.00;;;0.75;;
30062;SDS011;16889;67.864;24.990;2022-07-29T14:17:29;12.88;;;1.50;;
30062;SDS011;16889;67.864;24.990;2022-07-29T14:22:15;2.00;;;0.68;;
30062;SDS011;16889;67.864;24.990;2022-07-29T14:31:50;3.28;;;0.80;;
30062;SDS011;16889;67.864;24.990;2022-07-29T14:36:36;0.80;;;0.65;;
30062;SDS011;16889;67.864;24.990;2022-07-29T14:41:22;4.38;;;0.70;;
30062;SDS011;16889;67.864;24.990;2022-07-29T14:46:08;1.70;;;0.70;;
30062;SDS011;16889;67.864;24.990;2022-07-29T14:50:54;14.20;;;1.00;;
30062;SDS011;16889;67.864;24.990;2022-07-29T14:55:41;1.23;;;0.65;;
30062;SDS011;16889;67.864;24.990;2022-07-29T15:00:27;1.00;;;0.60;;
30062;SDS011;16889;67.864;24.990;2022-07-29T15:05:17;1.88;;;0.70;;
30062;SDS011;16889;67.864;24.990;2022-07-29T15:10:03;2.47;;;0.60;;
30062;SDS011;16889;67.864;24.990;2022-07-29T15:14:49;1.63;;;0.70;;
30062;SDS011;16889;67.864;24.990;2022-07-29T15:19:35;1.63;;;0.63;;
30062;SDS011;16889;67.864;24.990;2022-07-29T15:24:21;0.82;;;0.50;;
30062;SDS011;16889;67.864;24.990;2022-07-29T15:29:07;2.55;;;0.55;;
30062;SDS011;16889;67.864;24.990;2022-07-29T15:33:53;17.52;;;0.80;;
30062;SDS011;16889;67.864;24.990;2022-07-29T15:38:39;2.42;;;0.60;;
30062;SDS011;16889;67.864;24.990;2022-07-29T15:43:25;5.30;;;0.60;;
30062;SDS011;16889;67.864;24.990;2022-07-29T15:48:12;6.35;;;0.77;;
30062;SDS011;16889;67.864;24.990;2022-07-29T15:52:58;2.78;;;0.70;;
30062;SDS011;16889;67.864;24.990;2022-07-29T15:57:45;1.33;;;0.60;;
30062;SDS011;16889;67.864;24.990;2022-07-29T16:02:31;10.65;;;0.80;;
30062;SDS011;16889;67.864;24.990;2022-07-29T16:07:17;18.20;;;1.00;;
30062;SDS011;16889;67.864;24.990;2022-07-29T16:12:03;2.58;;;0.70;;
30062;SDS011;16889;67.864;24.990;2022-07-29T16:16:49;1.05;;;0.60;;
30062;SDS011;16889;67.864;24.990;2022-07-29T16:21:36;0.40;;;0.40;;
30062;SDS011;16889;67.864;24.990;2022-07-29T16:26:23;3.47;;;0.70;;
30062;SDS011;16889;67.864;24.990;2022-07-29T16:31:09;4.88;;;0.80;;
30062;SDS011;16889;67.864;24.990;2022-07-29T16:35:55;1.08;;;0.70;;
30062;SDS011;16889;67.864;24.990;2022-07-29T16:40:41;4.75;;;0.90;;
30062;SDS011;16889;67.864;24.990;2022-07-29T16:45:27;2.50;;;0.60;;
30062;SDS011;16889;67.864;24.990;2022-07-29T16:50:13;1.90;;;0.77;;
30062;SDS011;16889;67.864;24.990;2022-07-29T16:54:59;5.00;;;1.00;;
30062;SDS011;16889;67.864;24.990;2022-07-29T16:59:45;1.30;;;0.80;;
30062;SDS011;16889;67.864;24.990;2022-07-29T17:04:35;1.38;;;0.80;;
30062;SDS011;16889;67.864;24.990;2022-07-29T17:09:21;3.50;;;0.82;;
30062;SDS011;16889;67.864;24.990;2022-07-29T17:14:08;2.50;;;0.70;;
30062;SDS011;16889;67.864;24.990;2022-07-29T17:18:54;0.95;;;0.68;;
30062;SDS011;16889;67.864;24.990;2022-07-29T17:23:41;1.13;;;0.90;;
30062;SDS011;16889;67.864;24.990;2022-07-29T17:28:27;0.82;;;0.70;;
30062;SDS011;16889;67.864;24.990;2022-07-29T17:33:13;1.63;;;0.70;;
30062;SDS011;16889;67.864;24.990;2022-07-29T17:37:59;1.65;;;0.90;;
30062;SDS011;16889;67.864;24.990;2022-07-29T17:42:45;0.98;;;0.80;;
30062;SDS011;16889;67.864;24.990;2022-07-29T17:47:31;1.23;;;0.80;;
30062;SDS011;16889;67.864;24.990;2022-07-29T17:52:17;2.90;;;0.80;;
30062;SDS011;16889;67.864;24.990;2022-07-29T17:57:03;1.10;;;0.70;;
30062;SDS011;16889;67.864;24.990;2022-07-29T18:01:49;0.70;;;0.70;;
30062;SDS011;16889;67.864;24.990;2022-07-29T18:06:35;2.15;;;0.80;;
30062;SDS011;16889;67.864;24.990;2022-07-29T18:11:21;0.80;;;0.70;;
30062;SDS011;16889;67.864;24.990;2022-07-29T18:16:09;0.85;;;0.80;;
30062;SDS011;16889;67.864;24.990;2022-07-29T18:20:55;1.17;;;0.80;;
30062;SDS011;16889;67.864;24.990;2022-07-29T18:25:41;1.05;;;0.70;;
30062;SDS011;16889;67.864;24.990;2022-07-29T18:30:27;1.45;;;0.70;;
30062;SDS011;16889;67.864;24.990;2022-07-29T18:35:14;5.25;;;0.80;;
30062;SDS011;16889;67.864;24.990;2022-07-29T18:40:04;1.10;;;0.93;;
30062;SDS011;16889;67.864;24.990;2022-07-29T18:44:50;1.35;;;0.75;;
30062;SDS011;16889;67.864;24.990;2022-07-29T18:49:36;2.42;;;0.80;;
30062;SDS011;16889;67.864;24.990;2022-07-29T18:54:22;5.07;;;0.90;;
30062;SDS011;16889;67.864;24.990;2022-07-29T18:59:08;4.60;;;0.70;;
30062;SDS011;16889;67.864;24.990;2022-07-29T19:03:55;3.83;;;0.80;;
30062;SDS011;16889;67.864;24.990;2022-07-29T19:08:41;2.08;;;1.00;;
30062;SDS011;16889;67.864;24.990;2022-07-29T19:13:27;4.13;;;0.77;;
30062;SDS011;16889;67.864;24.990;2022-07-29T19:18:13;1.80;;;0.98;;
30062;SDS011;16889;67.864;24.990;2022-07-29T19:22:59;2.15;;;1.00;;
30062;SDS011;16889;67.864;24.990;2022-07-29T19:27:45;1.30;;;0.90;;
30062;SDS011;16889;67.864;24.990;2022-07-29T19:32:31;2.00;;;0.90;;
30062;SDS011;16889;67.864;24.990;2022-07-29T19:37:17;2.53;;;0.85;;
30062;SDS011;16889;67.864;24.990;2022-07-29T19:42:04;1.67;;;1.00;;
30062;SDS011;16889;67.864;24.990;2022-07-29T19:46:52;2.90;;;1.00;;
30062;SDS011;16889;67.864;24.990;2022-07-29T19:51:38;5.18;;;0.98;;
30062;SDS011;16889;67.864;24.990;2022-07-29T19:56:26;2.50;;;1.20;;
30062;SDS011;16889;67.864;24.990;2022-07-29T20:01:14;1.85;;;0.80;;
30062;SDS011;16889;67.864;24.990;2022-07-29T20:06:00;3.28;;;0.85;;
30062;SDS011;16889;67.864;24.990;2022-07-29T20:10:46;2.30;;;1.00;;
30062;SDS011;16889;67.864;24.990;2022-07-29T20:15:32;5.45;;;0.95;;
30062;SDS011;16889;67.864;24.990;2022-07-29T20:20:18;10.05;;;1.33;;
30062;SDS011;16889;67.864;24.990;2022-07-29T20:25:06;5.13;;;1.20;;
30062;SDS011;16889;67.864;24.990;2022-07-29T20:29:56;1.92;;;1.30;;
30062;SDS011;16889;67.864;24.990;2022-07-29T20:34:41;4.32;;;0.95;;
30062;SDS011;16889;67.864;24.990;2022-07-29T20:39:28;8.02;;;1.00;;
30062;SDS011;16889;67.864;24.990;2022-07-29T20:44:14;8.98;;;1.20;;
30062;SDS011;16889;67.864;24.990;2022-07-29T20:49:02;1.17;;;0.98;;
30062;SDS011;16889;67.864;24.990;2022-07-29T20:53:49;2.90;;;1.08;;
30062;SDS011;16889;67.864;24.990;2022-07-29T20:58:35;3.15;;;1.05;;
30062;SDS011;16889;67.864;24.990;2022-07-29T21:03:22;1.63;;;1.10;;
30062;SDS011;16889;67.864;24.990;2022-07-29T21:08:08;4.25;;;1.20;;
30062;SDS011;16889;67.864;24.990;2022-07-29T21:12:55;1.73;;;1.17;;
30062;SDS011;16889;67.864;24.990;2022-07-29T21:17:41;1.80;;;0.98;;
30062;SDS011;16889;67.864;24.990;2022-07-29T21:22:33;1.23;;;1.10;;
30062;SDS011;16889;67.864;24.990;2022-07-29T21:27:19;4.15;;;1.13;;
30062;SDS011;16889;67.864;24.990;2022-07-29T21:32:23;2.53;;;1.00;;
30062;SDS011;16889;67.864;24.990;2022-07-29T21:37:09;1.95;;;1.00;;
30062;SDS011;16889;67.864;24.990;2022-07-29T21:41:55;2.25;;;1.30;;
30062;SDS011;16889;67.864;24.990;2022-07-29T21:46:41;1.83;;;1.20;;
30062;SDS011;16889;67.864;24.990;2022-07-29T21:51:27;2.08;;;1.23;;
30062;SDS011;16889;67.864;24.990;2022-07-29T21:56:13;2.55;;;1.20;;
30062;SDS011;16889;67.864;24.990;2022-07-29T22:00:59;1.85;;;1.20;;
30062;SDS011;16889;67.864;24.990;2022-07-29T22:05:45;2.95;;;1.30;;
30062;SDS011;16889;67.864;24.990;2022-07-29T22:10:31;2.85;;;1.40;;
30062;SDS011;16889;67.864;24.990;2022-07-29T22:15:17;1.77;;;1.10;;
30062;SDS011;16889;67.864;24.990;2022-07-29T22:20:03;3.25;;;1.35;;
30062;SDS011;16889;67.864;24.990;2022-07-29T22:24:50;3.75;;;1.00;;
30062;SDS011;16889;67.864;24.990;2022-07-29T22:29:36;2.35;;;1.33;;
30062;SDS011;16889;67.864;24.990;2022-07-29T22:34:22;1.88;;;1.30;;
30062;SDS011;16889;67.864;24.990;2022-07-29T22:39:08;2.00;;;1.30;;
30062;SDS011;16889;67.864;24.990;2022-07-29T22:43:54;2.38;;;1.17;;
30062;SDS011;16889;67.864;24.990;2022-07-29T22:48:40;4.63;;;1.60;;
30062;SDS011;16889;67.864;24.990;2022-07-29T22:53:26;5.93;;;1.50;;
30062;SDS011;16889;67.864;24.990;2022-07-29T22:58:12;4.38;;;1.60;;
30062;SDS011;16889;67.864;24.990;2022-07-29T23:02:58;4.68;;;1.67;;
30062;SDS011;16889;67.864;24.990;2022-07-29T23:07:44;5.93;;;1.75;;
30062;SDS011;16889;67.864;24.990;2022-07-29T23:12:30;6.05;;;1.50;;
30062;SDS011;16889;67.864;24.990;2022-07-29T23:17:16;2.88;;;1.75;;
30062;SDS011;16889;67.864;24.990;2022-07-29T23:22:02;2.97;;;1.67;;
30062;SDS011;16889;67.864;24.990;2022-07-29T23:26:48;3.13;;;1.85;;
30062;SDS011;16889;67.864;24.990;2022-07-29T23:31:34;4.65;;;1.85;;
30062;SDS011;16889;67.864;24.990;2022-07-29T23:36:20;3.75;;;1.58;;
30062;SDS011;16889;67.864;24.990;2022-07-29T23:41:06;5.00;;;1.40;;
30062;SDS011;16889;67.864;24.990;2022-07-29T23:45:54;2.97;;;1.70;;
30062;SDS011;16889;67.864;24.990;2022-07-29T23:50:41;3.63;;;1.50;;
30062;SDS011;16889;67.864;24.990;2022-07-29T23:55:27;5.68;;;1.55;;
